createdAt,value
2023-02-13T00:00:05.936Z,42.33
2023-02-13T00:02:10.730Z,50.33
2023-02-13T00:04:15.553Z,53.75
2023-02-13T00:06:20.329Z,42.40
2023-02-13T00:08:25.267Z,52.00
2023-02-13T00:10:30.524Z,44.10
2023-02-13T00:12:35.467Z,43.75
2023-02-13T00:14:43.635Z,46.83
2023-02-13T00:16:48.498Z,48.60
2023-02-13T00:18:55.967Z,48.55
2023-02-13T00:21:02.802Z,49.33
2023-02-13T00:23:07.671Z,44.92
2023-02-13T00:25:12.571Z,40.10
2023-02-13T00:27:17.416Z,42.90
2023-02-13T00:29:22.604Z,39.22
2023-02-13T00:33:34.985Z,37.70
2023-02-13T00:35:39.856Z,35.60
2023-02-13T00:37:44.665Z,36.72
2023-02-13T00:39:49.442Z,34.15
2023-02-13T00:41:55.545Z,44.80
2023-02-13T00:44:00.458Z,37.35
2023-02-13T00:46:05.991Z,37.60
2023-02-13T00:48:13.431Z,41.60
2023-02-13T00:50:18.603Z,33.65
2023-02-13T00:52:23.406Z,35.05
2023-02-13T00:56:33.314Z,34.42
2023-02-13T00:58:38.282Z,32.72
2023-02-13T01:00:43.102Z,30.88
2023-02-13T01:02:48.060Z,32.28
2023-02-13T01:04:55.544Z,31.80
2023-02-13T01:07:00.711Z,33.63
2023-02-13T01:11:10.604Z,34.50
2023-02-13T01:13:15.911Z,34.97
2023-02-13T01:15:20.963Z,36.30
2023-02-13T01:17:26.663Z,35.13
2023-02-13T01:19:34.702Z,31.10
2023-02-13T01:21:42.232Z,30.73
2023-02-13T01:23:47.463Z,31.60
2023-02-13T01:27:59.609Z,29.23
2023-02-13T01:30:04.573Z,28.33
2023-02-13T01:32:09.479Z,29.77
2023-02-13T01:34:14.340Z,28.77
2023-02-13T01:36:19.767Z,28.15
2023-02-13T01:38:27.235Z,31.02
2023-02-13T01:40:32.370Z,34.65
2023-02-13T01:42:38.874Z,38.67
2023-02-13T01:44:55.280Z,34.50
2023-02-13T01:47:00.156Z,34.20
2023-02-13T01:49:12.186Z,29.52
2023-02-13T01:51:21.309Z,30.85
2023-02-13T01:53:32.816Z,27.95
2023-02-13T01:55:40.621Z,31.65
2023-02-13T01:57:49.801Z,25.70
2023-02-13T02:00:00.143Z,27.60
2023-02-13T02:02:06.608Z,29.70
2023-02-13T02:04:16.355Z,27.85
2023-02-13T02:06:28.780Z,26.15
2023-02-13T02:08:37.994Z,25.58
2023-02-13T02:10:45.962Z,26.95
2023-02-13T02:12:55.308Z,24.40
2023-02-13T02:15:03.246Z,22.60
2023-02-13T02:17:10.918Z,24.27
2023-02-13T02:19:25.442Z,26.00
2023-02-13T02:21:57.924Z,29.85
2023-02-13T02:24:50.683Z,29.70
2023-02-13T02:27:12.715Z,54.13
2023-02-13T02:29:52.472Z,53.97
2023-02-13T02:32:31.545Z,49.60
2023-02-13T02:34:44.208Z,42.22
2023-02-13T02:37:08.033Z,35.25
2023-02-13T02:39:22.642Z,30.65
2023-02-13T02:41:45.219Z,34.00
2023-02-13T02:44:02.140Z,35.70
2023-02-13T02:46:14.253Z,36.75
2023-02-13T02:48:41.534Z,29.60
2023-02-13T02:50:51.754Z,26.90
2023-02-13T02:53:07.522Z,27.60
2023-02-13T02:55:27.340Z,23.83
2023-02-13T02:57:47.721Z,23.60
2023-02-13T03:00:08.342Z,24.65
2023-02-13T03:02:27.505Z,21.50
2023-02-13T03:04:51.730Z,22.73
2023-02-13T03:07:01.800Z,22.42
2023-02-13T03:09:22.953Z,25.25
2023-02-13T03:11:40.342Z,23.45
2023-02-13T03:13:49.788Z,22.98
2023-02-13T03:16:22.014Z,21.17
2023-02-13T03:18:39.605Z,28.08
2023-02-13T03:21:06.245Z,25.02
2023-02-13T03:23:16.976Z,22.45
2023-02-13T03:25:34.577Z,22.85
2023-02-13T03:28:01.321Z,23.98
2023-02-13T03:30:16.594Z,23.33
2023-02-13T03:32:29.560Z,19.00
2023-02-13T03:34:50.905Z,22.65
2023-02-13T03:37:16.919Z,23.00
2023-02-13T03:39:27.069Z,20.35
2023-02-13T03:41:37.792Z,25.63
2023-02-13T03:43:48.133Z,24.33
2023-02-13T03:45:54.284Z,24.50
2023-02-13T03:48:09.674Z,24.80
2023-02-13T03:50:14.285Z,24.60
2023-02-13T03:52:27.450Z,25.08
2023-02-13T03:54:51.204Z,23.70
2023-02-13T03:57:10.815Z,28.15
2023-02-13T03:59:25.192Z,25.50
2023-02-13T04:01:33.580Z,27.58
2023-02-13T04:03:43.482Z,28.67
2023-02-13T04:05:52.764Z,29.67
2023-02-13T04:08:02.971Z,26.60
2023-02-13T04:10:13.568Z,26.05
2023-02-13T04:12:22.396Z,29.50
2023-02-13T04:14:30.676Z,26.90
2023-02-13T04:16:39.866Z,26.80
2023-02-13T04:18:46.056Z,25.73
2023-02-13T04:20:51.113Z,27.10
2023-02-13T04:22:56.034Z,24.42
2023-02-13T04:25:03.938Z,27.25
2023-02-13T04:27:08.780Z,23.55
2023-02-13T04:29:13.644Z,22.58
2023-02-13T04:31:18.698Z,25.45
2023-02-13T04:33:23.763Z,24.90
2023-02-13T04:35:28.997Z,23.83
2023-02-13T04:37:33.890Z,22.92
2023-02-13T04:39:38.653Z,23.05
2023-02-13T04:41:46.123Z,21.83
2023-02-13T04:43:52.557Z,23.15
2023-02-13T04:45:59.441Z,24.15
2023-02-13T04:48:04.200Z,24.48
2023-02-13T04:50:10.211Z,23.65
2023-02-13T04:52:15.380Z,23.58
2023-02-13T04:56:24.731Z,24.50
2023-02-13T04:58:32.191Z,22.20
2023-02-13T05:00:37.748Z,22.95
2023-02-13T05:02:45.536Z,24.83
2023-02-13T05:04:50.498Z,23.83
2023-02-13T05:06:55.397Z,25.02
2023-02-13T05:09:00.264Z,27.17
2023-02-13T05:11:05.452Z,24.60
2023-02-13T05:15:17.554Z,22.73
2023-02-13T05:17:22.397Z,22.92
2023-02-13T05:19:27.345Z,23.65
2023-02-13T05:21:44.704Z,26.35
2023-02-13T05:23:49.619Z,21.65
2023-02-13T05:25:56.366Z,25.42
2023-02-13T05:28:01.658Z,24.08
2023-02-13T05:32:11.279Z,21.10
2023-02-13T05:34:16.195Z,22.75
2023-02-13T05:36:21.117Z,19.45
2023-02-13T05:38:25.988Z,22.60
2023-02-13T05:40:30.995Z,20.45
2023-02-13T05:42:35.830Z,19.63
2023-02-13T05:44:40.815Z,18.13
2023-02-13T05:46:46.311Z,18.02
2023-02-13T05:48:56.458Z,18.08
2023-02-13T05:51:01.498Z,18.70
2023-02-13T05:53:06.386Z,19.15
2023-02-13T05:55:11.502Z,20.85
2023-02-13T05:59:23.709Z,19.90
2023-02-13T06:01:28.911Z,20.23
2023-02-13T06:03:34.661Z,19.38
2023-02-13T06:05:42.188Z,20.48
2023-02-13T06:07:47.044Z,21.83
2023-02-13T06:09:51.931Z,19.70
2023-02-13T06:11:56.700Z,19.20
2023-02-13T06:14:01.555Z,19.98
2023-02-13T06:16:06.633Z,21.05
2023-02-13T06:20:16.494Z,18.38
2023-02-13T06:22:23.986Z,18.02
2023-02-13T06:24:28.879Z,21.67
2023-02-13T06:26:33.718Z,19.75
2023-02-13T06:28:38.703Z,19.48
2023-02-13T06:30:43.538Z,22.20
2023-02-13T06:32:50.284Z,19.25
2023-02-13T06:34:55.131Z,19.85
2023-02-13T06:37:00.109Z,18.45
2023-02-13T06:39:07.697Z,20.67
2023-02-13T06:41:12.702Z,20.85
2023-02-13T06:43:18.042Z,19.92
2023-02-13T06:45:22.889Z,24.17
2023-02-13T06:47:28.099Z,22.55
2023-02-13T06:51:37.436Z,21.25
2023-02-13T06:53:42.239Z,24.50
2023-02-13T06:55:56.497Z,28.83
2023-02-13T06:58:02.583Z,28.90
2023-02-13T07:00:13.369Z,29.42
2023-02-13T07:02:18.601Z,28.00
2023-02-13T07:04:26.408Z,33.30
2023-02-13T07:06:32.989Z,36.38
2023-02-13T07:08:38.477Z,29.35
2023-02-13T07:10:44.465Z,32.50
2023-02-13T07:13:05.447Z,34.92
2023-02-13T07:15:11.764Z,36.35
2023-02-13T07:17:16.971Z,31.58
2023-02-13T07:21:26.583Z,29.67
2023-02-13T07:23:31.422Z,30.08
2023-02-13T07:25:37.605Z,30.02
2023-02-13T07:27:42.610Z,30.42
2023-02-13T07:29:50.219Z,30.65
2023-02-13T07:31:55.652Z,30.15
2023-02-13T07:34:00.598Z,37.15
2023-02-13T07:36:05.714Z,61.72
2023-02-13T07:40:18.112Z,31.08
2023-02-13T07:42:23.042Z,34.55
2023-02-13T07:44:27.901Z,31.23
2023-02-13T07:46:35.405Z,30.23
2023-02-13T07:48:40.325Z,28.17
2023-02-13T07:50:45.228Z,31.70
2023-02-13T07:52:56.408Z,34.60
2023-02-13T07:55:01.294Z,33.53
2023-02-13T07:57:07.444Z,29.02
2023-02-13T07:59:13.933Z,29.73
2023-02-13T08:01:20.447Z,27.27
2023-02-13T08:03:27.922Z,59.38
2023-02-13T08:05:35.097Z,66.53
2023-02-13T08:07:40.469Z,32.10
2023-02-13T08:12:05.057Z,34.00
2023-02-13T08:14:09.853Z,32.63
2023-02-13T08:16:15.118Z,41.53
2023-02-13T08:18:20.310Z,34.75
2023-02-13T08:20:27.882Z,28.70
2023-02-13T08:22:32.755Z,31.98
2023-02-13T08:24:37.629Z,33.03
2023-02-13T08:26:43.534Z,33.30
2023-02-13T08:28:48.413Z,31.13
2023-02-13T08:30:55.548Z,30.33
2023-02-13T08:33:00.468Z,29.05
2023-02-13T08:35:05.326Z,28.25
2023-02-13T08:37:12.785Z,33.58
2023-02-13T08:39:17.580Z,34.50
2023-02-13T08:41:23.242Z,37.35
2023-02-13T08:43:28.150Z,34.33
2023-02-13T08:45:33.456Z,35.10
2023-02-13T08:49:43.144Z,42.08
2023-02-13T08:51:48.032Z,38.92
2023-02-13T08:53:55.632Z,39.65
2023-02-13T08:56:01.171Z,36.03
2023-02-13T08:58:07.092Z,34.97
2023-02-13T09:00:13.259Z,39.47
2023-02-13T09:02:18.114Z,30.95
2023-02-13T09:04:23.354Z,35.65
2023-02-13T09:08:33.885Z,34.93
2023-02-13T09:12:55.551Z,35.97
2023-02-13T09:15:00.370Z,34.72
2023-02-13T09:17:05.207Z,31.92
2023-02-13T09:19:10.338Z,37.42
2023-02-13T09:21:16.161Z,39.95
2023-02-13T09:23:21.060Z,35.85
2023-02-13T09:25:26.310Z,37.63
2023-02-13T09:27:34.832Z,35.35
2023-02-13T09:29:39.753Z,32.80
2023-02-13T09:31:44.738Z,31.88
2023-02-13T09:33:51.215Z,36.97
2023-02-13T09:35:56.545Z,34.50
2023-02-13T09:38:03.860Z,34.03
2023-02-13T09:40:19.009Z,31.90
2023-02-13T09:42:27.001Z,38.43
2023-02-13T09:44:43.531Z,41.50
2023-02-13T09:46:49.069Z,33.20
2023-02-13T09:49:00.130Z,33.97
2023-02-13T09:51:05.061Z,34.83
2023-02-13T09:53:10.062Z,36.55
2023-02-13T09:55:19.994Z,37.22
2023-02-13T09:57:31.480Z,36.80
2023-02-13T09:59:48.617Z,38.92
2023-02-13T10:01:57.997Z,42.15
2023-02-13T10:04:25.855Z,32.25
2023-02-13T10:06:34.512Z,33.95
2023-02-13T10:09:02.279Z,33.95
2023-02-13T10:11:18.094Z,33.33
2023-02-13T10:13:35.352Z,40.95
2023-02-13T10:15:51.771Z,41.38
2023-02-13T10:18:02.127Z,40.88
2023-02-13T10:20:11.490Z,47.22
2023-02-13T10:22:19.845Z,39.30
2023-02-13T10:24:34.579Z,41.95
2023-02-13T10:26:46.580Z,42.75
2023-02-13T10:29:10.865Z,38.13
2023-02-13T10:31:22.447Z,34.65
2023-02-13T10:33:32.131Z,37.25
2023-02-13T10:35:37.861Z,43.75
2023-02-13T10:37:42.835Z,36.60
2023-02-13T10:39:49.633Z,41.92
2023-02-13T10:41:58.076Z,37.92
2023-02-13T10:44:18.993Z,39.47
2023-02-13T10:46:39.289Z,34.28
2023-02-13T10:49:07.261Z,35.67
2023-02-13T10:51:18.468Z,40.42
2023-02-13T10:53:35.173Z,36.95
2023-02-13T10:56:24.733Z,40.42
2023-02-13T10:58:41.795Z,40.30
2023-02-13T11:00:57.156Z,37.75
2023-02-13T11:03:04.970Z,36.70
2023-02-13T11:05:19.641Z,40.83
2023-02-13T11:07:27.963Z,39.17
2023-02-13T11:09:39.798Z,38.33
2023-02-13T11:11:46.273Z,41.78
2023-02-13T11:14:10.841Z,39.25
2023-02-13T11:16:15.910Z,35.53
2023-02-13T11:18:26.512Z,35.55
2023-02-13T11:20:40.041Z,33.03
2023-02-13T11:22:45.930Z,36.60
2023-02-13T11:24:56.448Z,32.33
2023-02-13T11:27:09.085Z,33.08
2023-02-13T11:29:21.424Z,38.42
2023-02-13T11:31:29.847Z,37.10
2023-02-13T11:33:37.357Z,32.70
2023-02-13T11:35:42.474Z,32.78
2023-02-13T11:39:56.839Z,28.08
2023-02-13T11:42:02.565Z,29.33
2023-02-13T11:44:08.301Z,29.58
2023-02-13T11:46:20.604Z,32.78
2023-02-13T11:48:25.777Z,30.63
2023-02-13T11:52:40.389Z,28.38
2023-02-13T11:54:47.249Z,32.85
2023-02-13T11:57:05.800Z,29.35
2023-02-13T11:59:16.761Z,31.00
2023-02-13T12:01:31.152Z,29.65
2023-02-13T12:03:36.278Z,31.35
2023-02-13T12:05:43.715Z,27.60
2023-02-13T12:07:49.780Z,28.35
2023-02-13T12:10:01.906Z,34.95
2023-02-13T12:12:08.661Z,37.33
2023-02-13T12:14:17.223Z,28.17
2023-02-13T12:16:34.140Z,30.38
2023-02-13T12:18:43.120Z,35.08
2023-02-13T12:20:59.963Z,29.80
2023-02-13T12:23:10.505Z,26.95
2023-02-13T12:25:30.504Z,30.42
2023-02-13T12:27:43.844Z,28.50
2023-02-13T12:30:09.389Z,24.05
2023-02-13T12:32:21.476Z,25.17
2023-02-13T12:34:51.658Z,24.25
2023-02-13T12:37:14.949Z,27.65
2023-02-13T12:39:28.813Z,21.42
2023-02-13T12:41:41.867Z,23.27
2023-02-13T12:44:08.703Z,21.98
2023-02-13T12:46:21.603Z,26.42
2023-02-13T12:48:37.389Z,22.67
2023-02-13T12:51:02.582Z,21.10
2023-02-13T12:53:20.937Z,23.58
2023-02-13T12:55:46.890Z,19.52
2023-02-13T12:58:05.540Z,19.98
2023-02-13T13:00:24.968Z,22.13
2023-02-13T13:02:50.550Z,19.08
2023-02-13T13:05:13.612Z,21.60
2023-02-13T13:07:45.585Z,14.90
2023-02-13T13:10:06.350Z,15.57
2023-02-13T13:12:21.378Z,18.02
2023-02-13T13:14:32.220Z,15.77
2023-02-13T13:16:48.486Z,16.65
2023-02-13T13:19:04.955Z,18.48
2023-02-13T13:21:23.331Z,18.52
2023-02-13T13:23:34.136Z,18.92
2023-02-13T13:25:50.242Z,18.27
2023-02-13T13:28:00.722Z,19.15
2023-02-13T13:30:08.947Z,17.63
2023-02-13T13:32:19.538Z,17.23
2023-02-13T13:34:27.643Z,16.10
2023-02-13T13:36:41.909Z,15.88
2023-02-13T13:38:56.920Z,15.82
2023-02-13T13:41:12.144Z,17.17
2023-02-13T13:43:30.190Z,18.90
2023-02-13T13:45:46.797Z,18.70
2023-02-13T13:48:09.997Z,16.83
2023-02-13T13:50:24.167Z,18.63
2023-02-13T13:52:31.121Z,15.93
2023-02-13T13:54:38.639Z,16.48
2023-02-13T13:57:22.285Z,17.38
2023-02-13T13:59:57.348Z,16.23
2023-02-13T14:02:32.288Z,19.95
2023-02-13T14:04:43.829Z,18.63
2023-02-13T14:07:27.008Z,17.70
2023-02-13T14:09:43.216Z,17.77
2023-02-13T14:11:48.552Z,17.63
2023-02-13T14:16:00.744Z,17.17
2023-02-13T14:18:11.465Z,17.38
2023-02-13T14:20:26.369Z,16.90
2023-02-13T14:22:39.529Z,16.83
2023-02-13T14:24:44.885Z,20.65
2023-02-13T14:29:35.947Z,17.35
2023-02-13T14:31:43.913Z,16.60
2023-02-13T14:33:49.622Z,17.40
2023-02-13T14:36:07.299Z,17.15
2023-02-13T14:38:26.900Z,17.08
2023-02-13T14:40:44.883Z,15.10
2023-02-13T14:42:54.046Z,14.75
2023-02-13T14:45:00.937Z,16.83
2023-02-13T14:47:09.312Z,16.17
2023-02-13T14:49:20.329Z,17.30
2023-02-13T14:51:33.337Z,16.65
2023-02-13T14:53:56.254Z,15.18
2023-02-13T14:56:05.882Z,18.48
2023-02-13T14:58:15.807Z,14.70
2023-02-13T15:00:27.967Z,17.63
2023-02-13T15:02:38.352Z,12.25
2023-02-13T15:04:46.440Z,15.30
2023-02-13T15:06:56.467Z,12.82
2023-02-13T15:09:05.019Z,14.77
2023-02-13T15:11:30.530Z,14.45
2023-02-13T15:13:37.514Z,14.73
2023-02-13T15:15:44.574Z,18.95
2023-02-13T15:17:49.889Z,17.70
2023-02-13T15:22:07.178Z,16.23
2023-02-13T15:24:17.346Z,13.95
2023-02-13T15:26:27.540Z,12.63
2023-02-13T15:28:33.101Z,12.70
2023-02-13T15:30:41.183Z,14.70
2023-02-13T15:32:46.137Z,9.45
2023-02-13T15:34:51.535Z,10.65
2023-02-13T15:36:57.064Z,10.93
2023-02-13T15:39:10.427Z,10.85
2023-02-13T15:41:21.736Z,9.85
2023-02-13T15:43:34.740Z,9.55
2023-02-13T15:45:39.593Z,9.60
2023-02-13T15:47:46.968Z,10.85
2023-02-13T15:49:52.751Z,9.93
2023-02-13T15:52:10.296Z,8.68
2023-02-13T15:54:30.994Z,9.68
2023-02-13T15:56:37.414Z,8.82
2023-02-13T15:58:42.379Z,12.02
2023-02-13T16:00:47.668Z,9.65
2023-02-13T16:02:55.439Z,9.98
2023-02-13T16:05:01.385Z,11.52
2023-02-13T16:07:06.225Z,10.93
2023-02-13T16:09:30.835Z,10.20
2023-02-13T16:11:40.274Z,9.38
2023-02-13T16:14:01.872Z,11.85
2023-02-13T16:16:12.576Z,13.45
2023-02-13T16:18:22.492Z,11.95
2023-02-13T16:20:29.867Z,11.00
2023-02-13T16:22:38.414Z,12.00
2023-02-13T16:24:50.930Z,10.38
2023-02-13T16:26:56.417Z,13.32
2023-02-13T16:29:01.459Z,12.40
2023-02-13T16:31:08.524Z,10.88
2023-02-13T16:33:30.671Z,12.57
2023-02-13T16:35:40.862Z,10.70
2023-02-13T16:37:55.484Z,13.25
2023-02-13T16:40:34.832Z,14.35
2023-02-13T16:42:39.788Z,12.27
2023-02-13T16:44:44.658Z,17.58
2023-02-13T16:46:55.318Z,19.15
2023-02-13T16:49:18.852Z,21.30
2023-02-13T16:51:28.585Z,17.48
2023-02-13T16:53:34.332Z,19.13
2023-02-13T16:55:41.912Z,16.35
2023-02-13T16:57:47.460Z,22.15
2023-02-13T17:00:04.432Z,19.50
2023-02-13T17:02:23.975Z,20.05
2023-02-13T17:04:30.406Z,17.92
2023-02-13T17:06:35.272Z,19.63
2023-02-13T17:08:40.125Z,21.85
2023-02-13T17:11:04.767Z,19.90
2023-02-13T17:13:17.871Z,24.50
2023-02-13T17:15:25.171Z,19.67
2023-02-13T17:17:32.121Z,20.48
2023-02-13T17:19:36.895Z,21.27
2023-02-13T17:21:42.716Z,19.90
2023-02-13T17:23:50.726Z,22.33
2023-02-13T17:26:00.359Z,33.75
2023-02-13T17:28:18.955Z,25.92
2023-02-13T17:30:30.981Z,22.60
2023-02-13T17:32:39.900Z,22.50
2023-02-13T17:34:49.282Z,17.90
2023-02-13T17:36:56.065Z,20.08
2023-02-13T17:39:00.974Z,16.40
2023-02-13T17:41:08.740Z,19.00
2023-02-13T17:43:18.170Z,14.40
2023-02-13T17:45:28.789Z,16.10
2023-02-13T17:47:33.653Z,19.30
2023-02-13T17:49:38.437Z,18.42
2023-02-13T17:51:46.019Z,21.88
2023-02-13T17:53:51.131Z,21.48
2023-02-13T17:55:57.095Z,29.00
2023-02-13T17:58:05.068Z,27.17
2023-02-13T18:00:11.667Z,32.05
2023-02-13T18:02:22.229Z,23.23
2023-02-13T18:04:27.653Z,18.90
2023-02-13T18:06:32.515Z,19.60
2023-02-13T18:08:37.338Z,17.45
2023-02-13T18:10:42.522Z,17.40
2023-02-13T18:12:48.592Z,17.52
2023-02-13T18:14:56.390Z,16.48
2023-02-13T18:17:01.280Z,16.65
2023-02-13T18:19:06.111Z,13.68
2023-02-13T18:21:12.680Z,15.10
2023-02-13T18:23:18.406Z,17.23
2023-02-13T18:25:24.293Z,14.65
2023-02-13T18:27:29.205Z,16.42
2023-02-13T18:29:36.335Z,16.08
2023-02-13T18:31:45.303Z,16.25
2023-02-13T18:33:50.428Z,17.42
2023-02-13T18:36:00.611Z,17.67
2023-02-13T18:38:07.812Z,20.33
2023-02-13T18:40:15.141Z,20.05
2023-02-13T18:42:19.978Z,20.40
2023-02-13T18:44:28.891Z,20.10
2023-02-13T18:46:34.068Z,19.48
2023-02-13T18:48:43.763Z,19.92
2023-02-13T18:50:48.664Z,19.10
2023-02-13T18:52:56.042Z,22.40
2023-02-13T18:55:03.577Z,24.08
2023-02-13T18:57:15.503Z,23.35
2023-02-13T18:59:23.700Z,24.90
2023-02-13T19:01:28.550Z,24.77
2023-02-13T19:03:33.448Z,28.45
2023-02-13T19:05:43.169Z,27.27
2023-02-13T19:07:48.042Z,37.75
2023-02-13T19:10:04.566Z,29.23
2023-02-13T19:12:11.623Z,35.47
2023-02-13T19:14:19.254Z,36.35
2023-02-13T19:16:28.531Z,32.97
2023-02-13T19:18:33.403Z,28.48
2023-02-13T19:20:41.416Z,33.72
2023-02-13T19:22:46.302Z,32.45
2023-02-13T19:24:51.242Z,28.15
2023-02-13T19:26:56.328Z,32.97
2023-02-13T19:29:04.081Z,32.35
2023-02-13T19:31:13.840Z,29.02
2023-02-13T19:33:21.099Z,31.25
2023-02-13T19:35:26.810Z,31.75
2023-02-13T19:37:43.702Z,29.92
2023-02-13T19:39:56.150Z,30.52
2023-02-13T19:42:01.058Z,31.55
2023-02-13T19:44:06.116Z,33.03
2023-02-13T19:46:14.205Z,32.17
2023-02-13T19:48:20.339Z,33.25
2023-02-13T19:50:25.248Z,34.50
2023-02-13T19:52:32.789Z,31.88
2023-02-13T19:54:40.620Z,36.22
2023-02-13T19:56:45.509Z,36.53
2023-02-13T19:58:50.405Z,36.35
2023-02-13T20:00:55.396Z,35.95
2023-02-13T20:03:03.980Z,39.28
2023-02-13T20:05:09.726Z,39.80
2023-02-13T20:07:14.665Z,40.08
2023-02-13T20:09:19.753Z,40.00
2023-02-13T20:11:27.113Z,46.58
2023-02-13T20:13:32.154Z,43.55
2023-02-13T20:15:36.952Z,41.50
2023-02-13T20:17:41.819Z,43.97
2023-02-13T20:19:47.723Z,44.58
2023-02-13T20:21:55.230Z,49.42
2023-02-13T20:24:00.111Z,42.60
2023-02-13T20:26:09.089Z,43.83
2023-02-13T20:28:16.535Z,42.78
2023-02-13T20:30:22.550Z,40.67
2023-02-13T20:34:44.152Z,40.40
2023-02-13T20:36:57.404Z,40.83
2023-02-13T20:39:05.479Z,43.20
2023-02-13T20:41:11.579Z,43.88
2023-02-13T20:43:23.476Z,42.53
2023-02-13T20:45:28.415Z,44.30
2023-02-13T20:47:34.726Z,43.13
2023-02-13T20:49:41.171Z,40.60
2023-02-13T20:51:47.686Z,43.47
2023-02-13T20:53:52.636Z,40.33
2023-02-13T20:56:05.718Z,39.17
2023-02-13T20:58:12.796Z,43.03
2023-02-13T21:00:20.606Z,39.63
2023-02-13T21:02:28.158Z,39.33
2023-02-13T21:04:34.333Z,39.72
2023-02-13T21:06:57.938Z,40.22
2023-02-13T21:09:03.895Z,39.50
2023-02-13T21:11:10.713Z,38.40
2023-02-13T21:13:15.578Z,44.40
2023-02-13T21:15:23.058Z,40.25
2023-02-13T21:17:27.921Z,41.88
2023-02-13T21:19:33.590Z,42.78
2023-02-13T21:21:44.093Z,41.58
2023-02-13T21:23:49.270Z,44.85
2023-02-13T21:25:54.385Z,43.58
2023-02-13T21:27:59.965Z,46.35
2023-02-13T21:30:05.007Z,44.60
2023-02-13T21:32:12.657Z,42.85
2023-02-13T21:34:19.247Z,39.65
2023-02-13T21:36:24.096Z,44.15
2023-02-13T21:38:28.914Z,43.92
2023-02-13T21:40:33.800Z,41.38
2023-02-13T21:42:38.733Z,43.50
2023-02-13T21:44:43.576Z,40.33
2023-02-13T21:46:50.037Z,42.25
2023-02-13T21:49:02.509Z,43.13
2023-02-13T21:51:10.981Z,48.97
2023-02-13T21:53:15.834Z,43.13
2023-02-13T21:55:20.865Z,44.10
2023-02-13T21:59:30.540Z,43.08
2023-02-13T22:01:37.576Z,45.00
2023-02-13T22:03:42.625Z,44.50
2023-02-13T22:05:51.511Z,42.22
2023-02-13T22:08:08.808Z,41.75
2023-02-13T22:10:13.953Z,46.85
2023-02-13T22:12:18.722Z,43.22
2023-02-13T22:14:24.405Z,45.47
2023-02-13T22:16:30.534Z,49.38
2023-02-13T22:18:36.674Z,45.03
2023-02-13T22:20:41.642Z,44.20
2023-02-13T22:22:48.994Z,44.45
2023-02-13T22:24:53.740Z,50.45
2023-02-13T22:26:58.580Z,47.80
2023-02-13T22:29:05.656Z,44.47
2023-02-13T22:31:11.719Z,45.00
2023-02-13T22:33:16.607Z,40.00
2023-02-13T22:35:21.390Z,45.05
2023-02-13T22:37:26.378Z,42.58
2023-02-13T22:39:33.911Z,45.20
2023-02-13T22:41:38.845Z,44.67
2023-02-13T22:43:45.449Z,45.00
2023-02-13T22:45:50.358Z,39.38
2023-02-13T22:47:55.259Z,39.90
2023-02-13T22:50:00.029Z,42.45
2023-02-13T22:52:04.966Z,43.78
2023-02-13T22:54:12.662Z,43.53
2023-02-13T22:56:20.017Z,45.47
2023-02-13T22:58:24.851Z,42.17
2023-02-13T23:00:29.614Z,49.95
2023-02-13T23:02:34.450Z,43.97
2023-02-13T23:04:39.505Z,44.25
2023-02-13T23:06:44.279Z,49.35
2023-02-13T23:08:52.463Z,50.25
2023-02-13T23:11:10.393Z,48.42
2023-02-13T23:13:18.392Z,49.53
2023-02-13T23:15:23.364Z,52.80
2023-02-13T23:17:41.048Z,46.00
2023-02-13T23:19:46.207Z,42.63
2023-02-13T23:21:51.124Z,43.38
2023-02-13T23:23:56.413Z,43.55
2023-02-13T23:26:05.642Z,43.67
2023-02-13T23:28:10.610Z,44.78
2023-02-13T23:30:20.766Z,46.47
2023-02-13T23:32:25.652Z,42.83
2023-02-13T23:34:30.424Z,43.20
2023-02-13T23:36:35.329Z,49.60
2023-02-13T23:38:40.131Z,45.60
2023-02-13T23:40:45.994Z,39.95
2023-02-13T23:42:50.828Z,41.42
2023-02-13T23:44:55.658Z,40.97
2023-02-13T23:47:03.059Z,39.75
2023-02-13T23:49:07.867Z,42.92
2023-02-13T23:51:12.660Z,43.20
2023-02-13T23:53:17.428Z,42.30
2023-02-13T23:55:22.391Z,39.20
2023-02-13T23:57:27.241Z,42.38
2023-02-13T23:59:32.070Z,42.40
